sensor_id;sensor_type;location;lat;lon;timestamp;temperature;humidity
67054;SHT31;53960;51.826;5.850;2023-01-24T00:01:37;3.60;84.35
67054;SHT31;53960;51.826;5.850;2023-01-24T00:04:03;3.54;84.68
67054;SHT31;53960;51.826;5.850;2023-01-24T00:06:28;3.51;84.35
67054;SHT31;53960;51.826;5.850;2023-01-24T00:08:53;3.50;84.01
67054;SHT31;53960;51.826;5.850;2023-01-24T00:11:19;3.46;84.35
67054;SHT31;53960;51.826;5.850;2023-01-24T00:13:44;3.56;83.86
67054;SHT31;53960;51.826;5.850;2023-01-24T00:16:13;3.57;83.51
67054;SHT31;53960;51.826;5.850;2023-01-24T00:18:39;3.56;83.96
67054;SHT31;53960;51.826;5.850;2023-01-24T00:21:22;3.57;83.92
67054;SHT31;53960;51.826;5.850;2023-01-24T00:23:52;3.54;84.40
67054;SHT31;53960;51.826;5.850;2023-01-24T00:26:19;3.51;84.48
67054;SHT31;53960;51.826;5.850;2023-01-24T00:28:46;3.47;84.27
67054;SHT31;53960;51.826;5.850;2023-01-24T00:31:12;3.49;84.25
67054;SHT31;53960;51.826;5.850;2023-01-24T00:33:37;3.51;83.94
67054;SHT31;53960;51.826;5.850;2023-01-24T00:36:03;3.53;83.46
67054;SHT31;53960;51.826;5.850;2023-01-24T00:38:29;3.54;83.66
67054;SHT31;53960;51.826;5.850;2023-01-24T00:40:56;3.47;83.65
67054;SHT31;53960;51.826;5.850;2023-01-24T00:43:21;3.51;83.84
67054;SHT31;53960;51.826;5.850;2023-01-24T00:45:47;3.49;83.97
67054;SHT31;53960;51.826;5.850;2023-01-24T00:48:13;3.46;84.07
67054;SHT31;53960;51.826;5.850;2023-01-24T00:50:38;3.50;84.03
67054;SHT31;53960;51.826;5.850;2023-01-24T00:53:04;3.53;83.82
67054;SHT31;53960;51.826;5.850;2023-01-24T00:55:30;3.50;84.08
67054;SHT31;53960;51.826;5.850;2023-01-24T00:57:55;3.47;83.94
67054;SHT31;53960;51.826;5.850;2023-01-24T01:00:21;3.47;83.97
67054;SHT31;53960;51.826;5.850;2023-01-24T01:02:48;3.53;83.66
67054;SHT31;53960;51.826;5.850;2023-01-24T01:05:13;3.47;83.90
67054;SHT31;53960;51.826;5.850;2023-01-24T01:07:39;3.49;84.12
67054;SHT31;53960;51.826;5.850;2023-01-24T01:10:04;3.43;84.49
67054;SHT31;53960;51.826;5.850;2023-01-24T01:12:30;3.47;84.33
67054;SHT31;53960;51.826;5.850;2023-01-24T01:14:55;3.49;84.45
67054;SHT31;53960;51.826;5.850;2023-01-24T01:17:21;3.47;83.97
67054;SHT31;53960;51.826;5.850;2023-01-24T01:19:50;3.40;84.55
67054;SHT31;53960;51.826;5.850;2023-01-24T01:22:16;3.53;83.91
67054;SHT31;53960;51.826;5.850;2023-01-24T01:24:41;3.50;83.90
67054;SHT31;53960;51.826;5.850;2023-01-24T01:27:07;3.50;84.04
67054;SHT31;53960;51.826;5.850;2023-01-24T01:29:33;3.49;83.97
67054;SHT31;53960;51.826;5.850;2023-01-24T01:31:58;3.49;83.90
67054;SHT31;53960;51.826;5.850;2023-01-24T01:34:24;3.51;83.86
67054;SHT31;53960;51.826;5.850;2023-01-24T01:36:49;3.49;83.86
67054;SHT31;53960;51.826;5.850;2023-01-24T01:39:14;3.47;84.14
67054;SHT31;53960;51.826;5.850;2023-01-24T01:41:40;3.46;84.55
67054;SHT31;53960;51.826;5.850;2023-01-24T01:44:28;3.49;84.64
67054;SHT31;53960;51.826;5.850;2023-01-24T01:47:08;3.46;84.59
67054;SHT31;53960;51.826;5.850;2023-01-24T01:49:39;3.47;84.53
67054;SHT31;53960;51.826;5.850;2023-01-24T01:52:07;3.44;84.78
67054;SHT31;53960;51.826;5.850;2023-01-24T01:54:37;3.36;85.19
67054;SHT31;53960;51.826;5.850;2023-01-24T01:57:15;3.41;85.19
67054;SHT31;53960;51.826;5.850;2023-01-24T01:59:47;3.44;85.14
67054;SHT31;53960;51.826;5.850;2023-01-24T02:02:17;3.40;85.27
67054;SHT31;53960;51.826;5.850;2023-01-24T02:04:47;3.40;85.26
67054;SHT31;53960;51.826;5.850;2023-01-24T02:07:46;3.34;85.53
67054;SHT31;53960;51.826;5.850;2023-01-24T02:10:10;3.36;85.45
67054;SHT31;53960;51.826;5.850;2023-01-24T02:12:54;3.33;85.74
67054;SHT31;53960;51.826;5.850;2023-01-24T02:15:22;3.33;85.85
67054;SHT31;53960;51.826;5.850;2023-01-24T02:18:07;3.27;86.13
67054;SHT31;53960;51.826;5.850;2023-01-24T02:26:08;3.26;86.19
67054;SHT31;53960;51.826;5.850;2023-01-24T02:28:34;3.29;86.19
67054;SHT31;53960;51.826;5.850;2023-01-24T02:31:01;3.33;86.04
67054;SHT31;53960;51.826;5.850;2023-01-24T02:33:26;3.30;86.02
67054;SHT31;53960;51.826;5.850;2023-01-24T02:38:36;3.31;86.35
67054;SHT31;53960;51.826;5.850;2023-01-24T02:41:01;3.20;86.73
67054;SHT31;53960;51.826;5.850;2023-01-24T02:43:34;3.31;86.48
67054;SHT31;53960;51.826;5.850;2023-01-24T02:46:00;3.24;86.64
67054;SHT31;53960;51.826;5.850;2023-01-24T02:48:25;3.26;86.59
67054;SHT31;53960;51.826;5.850;2023-01-24T02:50:50;3.23;86.65
67054;SHT31;53960;51.826;5.850;2023-01-24T02:53:34;3.20;87.06
67054;SHT31;53960;51.826;5.850;2023-01-24T02:56:02;3.20;86.99
67054;SHT31;53960;51.826;5.850;2023-01-24T02:58:47;3.15;87.11
67054;SHT31;53960;51.826;5.850;2023-01-24T03:01:13;3.16;87.13
67054;SHT31;53960;51.826;5.850;2023-01-24T03:03:42;3.24;86.52
67054;SHT31;53960;51.826;5.850;2023-01-24T03:06:09;3.19;86.18
67054;SHT31;53960;51.826;5.850;2023-01-24T03:08:36;3.18;86.38
67054;SHT31;53960;51.826;5.850;2023-01-24T03:11:02;3.10;86.03
67054;SHT31;53960;51.826;5.850;2023-01-24T03:13:27;3.12;85.91
67054;SHT31;53960;51.826;5.850;2023-01-24T03:16:11;3.15;85.74
67054;SHT31;53960;51.826;5.850;2023-01-24T03:18:55;3.10;86.03
67054;SHT31;53960;51.826;5.850;2023-01-24T03:21:39;3.09;86.24
67054;SHT31;53960;51.826;5.850;2023-01-24T03:24:23;3.05;86.33
67054;SHT31;53960;51.826;5.850;2023-01-24T03:27:08;3.05;86.37
67054;SHT31;53960;51.826;5.850;2023-01-24T03:29:52;3.02;86.25
67054;SHT31;53960;51.826;5.850;2023-01-24T03:32:37;3.06;86.10
67054;SHT31;53960;51.826;5.850;2023-01-24T03:35:21;3.03;86.17
67054;SHT31;53960;51.826;5.850;2023-01-24T03:37:46;3.02;86.30
67054;SHT31;53960;51.826;5.850;2023-01-24T03:40:31;2.99;86.30
67054;SHT31;53960;51.826;5.850;2023-01-24T03:42:56;2.95;86.58
67054;SHT31;53960;51.826;5.850;2023-01-24T03:45:22;2.91;86.52
67054;SHT31;53960;51.826;5.850;2023-01-24T03:47:56;2.88;86.90
67054;SHT31;53960;51.826;5.850;2023-01-24T03:50:22;2.93;86.58
67054;SHT31;53960;51.826;5.850;2023-01-24T03:53:08;3.00;86.34
67054;SHT31;53960;51.826;5.850;2023-01-24T03:55:34;2.96;86.24
67054;SHT31;53960;51.826;5.850;2023-01-24T03:58:00;2.93;86.38
67054;SHT31;53960;51.826;5.850;2023-01-24T04:00:26;2.88;86.85
67054;SHT31;53960;51.826;5.850;2023-01-24T04:02:51;2.89;86.92
67054;SHT31;53960;51.826;5.850;2023-01-24T04:05:17;2.87;87.16
67054;SHT31;53960;51.826;5.850;2023-01-24T04:07:42;2.91;86.89
67054;SHT31;53960;51.826;5.850;2023-01-24T04:10:08;2.96;86.52
67054;SHT31;53960;51.826;5.850;2023-01-24T04:12:34;3.00;86.30
67054;SHT31;53960;51.826;5.850;2023-01-24T04:14:59;2.98;86.32
67054;SHT31;53960;51.826;5.850;2023-01-24T04:17:25;2.95;86.36
67054;SHT31;53960;51.826;5.850;2023-01-24T04:19:50;2.98;86.40
67054;SHT31;53960;51.826;5.850;2023-01-24T04:22:16;2.95;86.36
67054;SHT31;53960;51.826;5.850;2023-01-24T04:24:42;2.89;86.61
67054;SHT31;53960;51.826;5.850;2023-01-24T04:27:08;2.91;86.69
67054;SHT31;53960;51.826;5.850;2023-01-24T04:29:33;2.89;86.79
67054;SHT31;53960;51.826;5.850;2023-01-24T04:31:58;2.89;86.88
67054;SHT31;53960;51.826;5.850;2023-01-24T04:34:24;2.89;86.79
67054;SHT31;53960;51.826;5.850;2023-01-24T04:36:49;2.95;86.43
67054;SHT31;53960;51.826;5.850;2023-01-24T04:39:14;2.95;86.24
67054;SHT31;53960;51.826;5.850;2023-01-24T04:41:40;2.91;86.18
67054;SHT31;53960;51.826;5.850;2023-01-24T04:44:05;2.93;86.44
67054;SHT31;53960;51.826;5.850;2023-01-24T04:46:31;2.91;86.30
67054;SHT31;53960;51.826;5.850;2023-01-24T04:48:56;2.91;86.14
67054;SHT31;53960;51.826;5.850;2023-01-24T04:51:22;2.88;86.19
67054;SHT31;53960;51.826;5.850;2023-01-24T04:53:47;2.81;86.60
67054;SHT31;53960;51.826;5.850;2023-01-24T04:56:12;2.78;86.86
67054;SHT31;53960;51.826;5.850;2023-01-24T04:58:37;2.79;86.79
67054;SHT31;53960;51.826;5.850;2023-01-24T05:01:03;2.81;86.79
67054;SHT31;53960;51.826;5.850;2023-01-24T05:03:28;2.78;86.80
67054;SHT31;53960;51.826;5.850;2023-01-24T05:05:54;2.74;87.34
67054;SHT31;53960;51.826;5.850;2023-01-24T05:08:20;2.77;87.18
67054;SHT31;53960;51.826;5.850;2023-01-24T05:10:46;2.78;87.26
67054;SHT31;53960;51.826;5.850;2023-01-24T05:13:11;2.84;87.10
67054;SHT31;53960;51.826;5.850;2023-01-24T05:15:36;2.82;86.95
67054;SHT31;53960;51.826;5.850;2023-01-24T05:18:02;2.82;86.69
67054;SHT31;53960;51.826;5.850;2023-01-24T05:20:29;2.81;87.00
67054;SHT31;53960;51.826;5.850;2023-01-24T05:22:57;2.75;87.31
67054;SHT31;53960;51.826;5.850;2023-01-24T05:25:23;2.75;87.37
67054;SHT31;53960;51.826;5.850;2023-01-24T05:27:49;2.79;87.14
67054;SHT31;53960;51.826;5.850;2023-01-24T05:30:15;2.82;87.16
67054;SHT31;53960;51.826;5.850;2023-01-24T05:32:40;2.79;87.10
67054;SHT31;53960;51.826;5.850;2023-01-24T05:35:07;2.88;86.60
67054;SHT31;53960;51.826;5.850;2023-01-24T05:37:32;2.87;86.29
67054;SHT31;53960;51.826;5.850;2023-01-24T05:39:58;2.77;86.60
67054;SHT31;53960;51.826;5.850;2023-01-24T05:42:23;2.77;86.88
67054;SHT31;53960;51.826;5.850;2023-01-24T05:44:48;2.77;86.89
67054;SHT31;53960;51.826;5.850;2023-01-24T05:47:13;2.75;87.05
67054;SHT31;53960;51.826;5.850;2023-01-24T05:49:39;2.77;87.10
67054;SHT31;53960;51.826;5.850;2023-01-24T05:52:04;2.74;87.28
67054;SHT31;53960;51.826;5.850;2023-01-24T05:54:29;2.74;87.35
67054;SHT31;53960;51.826;5.850;2023-01-24T05:56:55;2.74;87.34
67054;SHT31;53960;51.826;5.850;2023-01-24T05:59:20;2.74;87.44
67054;SHT31;53960;51.826;5.850;2023-01-24T06:01:46;2.75;87.19
67054;SHT31;53960;51.826;5.850;2023-01-24T06:04:11;2.81;87.02
67054;SHT31;53960;51.826;5.850;2023-01-24T06:06:37;2.78;87.00
67054;SHT31;53960;51.826;5.850;2023-01-24T06:09:03;2.75;87.00
67054;SHT31;53960;51.826;5.850;2023-01-24T06:11:28;2.77;86.71
67054;SHT31;53960;51.826;5.850;2023-01-24T06:13:55;2.72;87.27
67054;SHT31;53960;51.826;5.850;2023-01-24T06:16:22;2.77;86.95
67054;SHT31;53960;51.826;5.850;2023-01-24T06:18:49;2.69;86.95
67054;SHT31;53960;51.826;5.850;2023-01-24T06:24:17;2.71;87.07
67054;SHT31;53960;51.826;5.850;2023-01-24T06:26:42;2.66;87.24
67054;SHT31;53960;51.826;5.850;2023-01-24T06:29:11;2.69;87.33
67054;SHT31;53960;51.826;5.850;2023-01-24T06:35:05;2.75;87.12
67054;SHT31;53960;51.826;5.850;2023-01-24T06:37:42;2.69;87.28
67054;SHT31;53960;51.826;5.850;2023-01-24T06:40:11;2.69;87.28
67054;SHT31;53960;51.826;5.850;2023-01-24T06:42:37;2.66;86.96
67054;SHT31;53960;51.826;5.850;2023-01-24T06:45:02;2.69;87.30
67054;SHT31;53960;51.826;5.850;2023-01-24T06:47:28;2.66;87.24
67054;SHT31;53960;51.826;5.850;2023-01-24T06:49:54;2.62;87.38
67054;SHT31;53960;51.826;5.850;2023-01-24T06:52:19;2.64;87.37
67054;SHT31;53960;51.826;5.850;2023-01-24T06:54:44;2.61;87.13
67054;SHT31;53960;51.826;5.850;2023-01-24T06:57:10;2.64;87.45
67054;SHT31;53960;51.826;5.850;2023-01-24T06:59:35;2.61;87.49
67054;SHT31;53960;51.826;5.850;2023-01-24T07:02:01;2.64;87.43
67054;SHT31;53960;51.826;5.850;2023-01-24T07:04:26;2.62;87.29
67054;SHT31;53960;51.826;5.850;2023-01-24T07:06:51;2.65;87.26
67054;SHT31;53960;51.826;5.850;2023-01-24T07:09:21;2.62;87.09
67054;SHT31;53960;51.826;5.850;2023-01-24T07:11:47;2.60;87.15
67054;SHT31;53960;51.826;5.850;2023-01-24T07:14:15;2.65;87.02
67054;SHT31;53960;51.826;5.850;2023-01-24T07:16:40;2.61;87.12
67054;SHT31;53960;51.826;5.850;2023-01-24T07:19:09;2.57;87.24
67054;SHT31;53960;51.826;5.850;2023-01-24T07:21:39;2.52;87.46
67054;SHT31;53960;51.826;5.850;2023-01-24T07:24:10;2.55;87.30
67054;SHT31;53960;51.826;5.850;2023-01-24T07:26:37;2.54;87.51
67054;SHT31;53960;51.826;5.850;2023-01-24T07:29:02;2.51;87.64
67054;SHT31;53960;51.826;5.850;2023-01-24T07:31:28;2.51;87.96
67054;SHT31;53960;51.826;5.850;2023-01-24T07:33:53;2.58;87.54
67054;SHT31;53960;51.826;5.850;2023-01-24T07:36:18;2.60;87.38
67054;SHT31;53960;51.826;5.850;2023-01-24T07:38:44;2.58;87.47
67054;SHT31;53960;51.826;5.850;2023-01-24T07:41:09;2.55;87.73
67054;SHT31;53960;51.826;5.850;2023-01-24T07:43:35;2.52;87.80
67054;SHT31;53960;51.826;5.850;2023-01-24T07:46:01;2.55;87.62
67054;SHT31;53960;51.826;5.850;2023-01-24T07:48:26;2.58;87.32
67054;SHT31;53960;51.826;5.850;2023-01-24T07:50:51;2.54;87.16
67054;SHT31;53960;51.826;5.850;2023-01-24T07:53:16;2.55;87.26
67054;SHT31;53960;51.826;5.850;2023-01-24T07:55:42;2.55;87.17
67054;SHT31;53960;51.826;5.850;2023-01-24T07:58:07;2.60;87.07
67054;SHT31;53960;51.826;5.850;2023-01-24T08:00:32;2.55;87.23
67054;SHT31;53960;51.826;5.850;2023-01-24T08:02:58;2.54;87.42
67054;SHT31;53960;51.826;5.850;2023-01-24T08:05:23;2.55;87.56
67054;SHT31;53960;51.826;5.850;2023-01-24T08:07:48;2.54;87.44
67054;SHT31;53960;51.826;5.850;2023-01-24T08:10:14;2.55;87.46
67054;SHT31;53960;51.826;5.850;2023-01-24T08:12:40;2.61;87.34
67054;SHT31;53960;51.826;5.850;2023-01-24T08:15:06;2.57;87.21
67054;SHT31;53960;51.826;5.850;2023-01-24T08:17:32;2.55;87.24
67054;SHT31;53960;51.826;5.850;2023-01-24T08:19:57;2.58;87.17
67054;SHT31;53960;51.826;5.850;2023-01-24T08:22:24;2.62;86.91
67054;SHT31;53960;51.826;5.850;2023-01-24T08:24:49;2.55;87.30
67054;SHT31;53960;51.826;5.850;2023-01-24T08:27:15;2.54;87.24
67054;SHT31;53960;51.826;5.850;2023-01-24T08:29:40;2.50;87.66
67054;SHT31;53960;51.826;5.850;2023-01-24T08:32:05;2.57;87.44
67054;SHT31;53960;51.826;5.850;2023-01-24T08:34:30;2.52;87.30
67054;SHT31;53960;51.826;5.850;2023-01-24T08:36:56;2.54;87.42
67054;SHT31;53960;51.826;5.850;2023-01-24T08:39:21;2.54;87.51
67054;SHT31;53960;51.826;5.850;2023-01-24T08:41:46;2.55;87.61
67054;SHT31;53960;51.826;5.850;2023-01-24T08:44:13;2.64;87.00
67054;SHT31;53960;51.826;5.850;2023-01-24T08:46:39;2.62;87.17
67054;SHT31;53960;51.826;5.850;2023-01-24T08:49:04;2.69;87.07
67054;SHT31;53960;51.826;5.850;2023-01-24T08:51:30;2.74;86.93
67054;SHT31;53960;51.826;5.850;2023-01-24T08:53:55;2.74;86.85
67054;SHT31;53960;51.826;5.850;2023-01-24T08:56:21;2.69;86.81
67054;SHT31;53960;51.826;5.850;2023-01-24T08:58:46;2.69;86.89
67054;SHT31;53960;51.826;5.850;2023-01-24T09:01:11;2.66;86.59
67054;SHT31;53960;51.826;5.850;2023-01-24T09:03:37;2.66;86.27
67054;SHT31;53960;51.826;5.850;2023-01-24T09:06:04;2.66;86.36
67054;SHT31;53960;51.826;5.850;2023-01-24T09:08:29;2.68;86.25
67054;SHT31;53960;51.826;5.850;2023-01-24T09:10:57;2.68;85.87
67054;SHT31;53960;51.826;5.850;2023-01-24T09:13:23;2.69;85.91
67054;SHT31;53960;51.826;5.850;2023-01-24T09:15:49;2.62;86.30
67054;SHT31;53960;51.826;5.850;2023-01-24T09:18:14;2.58;86.70
67054;SHT31;53960;51.826;5.850;2023-01-24T09:20:40;2.62;85.99
67054;SHT31;53960;51.826;5.850;2023-01-24T09:23:08;2.62;86.04
67054;SHT31;53960;51.826;5.850;2023-01-24T09:25:34;2.60;86.36
67054;SHT31;53960;51.826;5.850;2023-01-24T09:27:59;2.69;86.16
67054;SHT31;53960;51.826;5.850;2023-01-24T09:30:25;2.68;86.28
67054;SHT31;53960;51.826;5.850;2023-01-24T09:32:50;2.72;86.12
67054;SHT31;53960;51.826;5.850;2023-01-24T09:35:16;2.81;85.60
67054;SHT31;53960;51.826;5.850;2023-01-24T09:37:41;2.81;85.87
67054;SHT31;53960;51.826;5.850;2023-01-24T09:42:47;2.84;85.75
67054;SHT31;53960;51.826;5.850;2023-01-24T09:45:30;2.87;85.43
67054;SHT31;53960;51.826;5.850;2023-01-24T09:48:11;2.87;85.35
67054;SHT31;53960;51.826;5.850;2023-01-24T09:50:47;2.81;85.35
67054;SHT31;53960;51.826;5.850;2023-01-24T09:53:24;2.85;85.23
67054;SHT31;53960;51.826;5.850;2023-01-24T09:55:50;2.82;85.37
67054;SHT31;53960;51.826;5.850;2023-01-24T09:58:25;2.81;85.11
67054;SHT31;53960;51.826;5.850;2023-01-24T10:00:54;2.79;84.96
67054;SHT31;53960;51.826;5.850;2023-01-24T10:03:23;2.79;84.79
67054;SHT31;53960;51.826;5.850;2023-01-24T10:05:51;2.75;84.91
67054;SHT31;53960;51.826;5.850;2023-01-24T10:08:30;2.71;85.06
67054;SHT31;53960;51.826;5.850;2023-01-24T10:11:25;2.71;85.35
67054;SHT31;53960;51.826;5.850;2023-01-24T10:25:03;2.77;84.95
67054;SHT31;53960;51.826;5.850;2023-01-24T10:27:35;2.79;84.53
67054;SHT31;53960;51.826;5.850;2023-01-24T10:30:12;2.84;84.43
67054;SHT31;53960;51.826;5.850;2023-01-24T10:32:40;2.92;84.10
67054;SHT31;53960;51.826;5.850;2023-01-24T10:35:20;2.88;84.33
67054;SHT31;53960;51.826;5.850;2023-01-24T10:37:50;2.92;84.06
67054;SHT31;53960;51.826;5.850;2023-01-24T10:40:21;2.84;84.32
67054;SHT31;53960;51.826;5.850;2023-01-24T10:42:47;2.82;84.21
67054;SHT31;53960;51.826;5.850;2023-01-24T10:45:29;2.87;84.28
67054;SHT31;53960;51.826;5.850;2023-01-24T10:48:17;2.85;84.23
67054;SHT31;53960;51.826;5.850;2023-01-24T10:50:44;2.87;84.08
67054;SHT31;53960;51.826;5.850;2023-01-24T10:53:26;2.91;84.48
67054;SHT31;53960;51.826;5.850;2023-01-24T10:56:00;2.92;84.21
67054;SHT31;53960;51.826;5.850;2023-01-24T10:58:32;2.85;84.40
67054;SHT31;53960;51.826;5.850;2023-01-24T11:00:59;2.85;83.80
67054;SHT31;53960;51.826;5.850;2023-01-24T11:03:30;2.84;84.32
67054;SHT31;53960;51.826;5.850;2023-01-24T11:06:00;2.77;84.31
67054;SHT31;53960;51.826;5.850;2023-01-24T11:08:36;2.82;84.12
67054;SHT31;53960;51.826;5.850;2023-01-24T11:11:03;2.85;84.16
67054;SHT31;53960;51.826;5.850;2023-01-24T11:13:41;2.87;84.02
67054;SHT31;53960;51.826;5.850;2023-01-24T11:16:30;2.79;84.21
67054;SHT31;53960;51.826;5.850;2023-01-24T11:19:03;2.82;84.39
67054;SHT31;53960;51.826;5.850;2023-01-24T11:21:30;2.89;84.00
67054;SHT31;53960;51.826;5.850;2023-01-24T11:24:14;2.88;84.24
67054;SHT31;53960;51.826;5.850;2023-01-24T11:27:04;2.98;83.55
67054;SHT31;53960;51.826;5.850;2023-01-24T11:29:30;2.92;83.67
67054;SHT31;53960;51.826;5.850;2023-01-24T11:34:50;2.84;84.10
67054;SHT31;53960;51.826;5.850;2023-01-24T11:40:20;2.85;84.56
67054;SHT31;53960;51.826;5.850;2023-01-24T11:48:07;2.92;84.23
67054;SHT31;53960;51.826;5.850;2023-01-24T11:56:22;2.91;84.32
67054;SHT31;53960;51.826;5.850;2023-01-24T12:10:35;2.96;84.40
67054;SHT31;53960;51.826;5.850;2023-01-24T12:15:52;2.95;84.49
67054;SHT31;53960;51.826;5.850;2023-01-24T12:21:07;2.95;84.26
67054;SHT31;53960;51.826;5.850;2023-01-24T12:26:16;3.03;83.91
67054;SHT31;53960;51.826;5.850;2023-01-24T12:29:14;3.06;83.66
67054;SHT31;53960;51.826;5.850;2023-01-24T12:31:52;3.05;83.51
67054;SHT31;53960;51.826;5.850;2023-01-24T12:37:27;3.13;83.69
67054;SHT31;53960;51.826;5.850;2023-01-24T12:42:58;3.16;83.55
67054;SHT31;53960;51.826;5.850;2023-01-24T12:45:33;3.15;83.65
67054;SHT31;53960;51.826;5.850;2023-01-24T12:48:19;3.22;83.26
67054;SHT31;53960;51.826;5.850;2023-01-24T12:51:13;3.12;82.71
67054;SHT31;53960;51.826;5.850;2023-01-24T12:53:59;3.06;83.05
67054;SHT31;53960;51.826;5.850;2023-01-24T12:56:48;3.02;83.25
67054;SHT31;53960;51.826;5.850;2023-01-24T12:59:19;3.03;83.74
67054;SHT31;53960;51.826;5.850;2023-01-24T13:13:24;3.03;84.34
67054;SHT31;53960;51.826;5.850;2023-01-24T13:16:29;3.02;83.92
67054;SHT31;53960;51.826;5.850;2023-01-24T13:24:19;3.19;82.84
67054;SHT31;53960;51.826;5.850;2023-01-24T13:32:20;3.15;83.46
67054;SHT31;53960;51.826;5.850;2023-01-24T13:34:52;3.10;83.96
67054;SHT31;53960;51.826;5.850;2023-01-24T13:37:31;3.09;83.43
67054;SHT31;53960;51.826;5.850;2023-01-24T13:40:18;3.16;83.40
67054;SHT31;53960;51.826;5.850;2023-01-24T13:42:44;3.10;83.27
67054;SHT31;53960;51.826;5.850;2023-01-24T13:47:52;3.03;83.65
67054;SHT31;53960;51.826;5.850;2023-01-24T13:50:22;3.03;83.81
67054;SHT31;53960;51.826;5.850;2023-01-24T13:52:52;2.99;83.73
67054;SHT31;53960;51.826;5.850;2023-01-24T13:57:45;3.08;82.96
67054;SHT31;53960;51.826;5.850;2023-01-24T14:08:01;2.98;83.19
67054;SHT31;53960;51.826;5.850;2023-01-24T14:10:45;2.98;83.26
67054;SHT31;53960;51.826;5.850;2023-01-24T14:19:21;2.89;83.65
67054;SHT31;53960;51.826;5.850;2023-01-24T14:24:37;2.85;83.69
67054;SHT31;53960;51.826;5.850;2023-01-24T14:27:23;2.85;84.06
67054;SHT31;53960;51.826;5.850;2023-01-24T14:29:53;2.87;83.64
67054;SHT31;53960;51.826;5.850;2023-01-24T14:32:30;2.87;84.23
67054;SHT31;53960;51.826;5.850;2023-01-24T14:37:46;2.92;84.00
67054;SHT31;53960;51.826;5.850;2023-01-24T14:40:19;2.92;83.59
67054;SHT31;53960;51.826;5.850;2023-01-24T14:42:47;2.95;83.51
67054;SHT31;53960;51.826;5.850;2023-01-24T14:45:15;2.82;84.01
67054;SHT31;53960;51.826;5.850;2023-01-24T14:47:46;2.89;83.75
67054;SHT31;53960;51.826;5.850;2023-01-24T14:50:28;2.95;83.68
67054;SHT31;53960;51.826;5.850;2023-01-24T14:52:54;2.85;84.05
67054;SHT31;53960;51.826;5.850;2023-01-24T14:57:52;2.88;83.68
67054;SHT31;53960;51.826;5.850;2023-01-24T15:00:18;2.82;83.86
67054;SHT31;53960;51.826;5.850;2023-01-24T15:02:56;2.82;83.70
67054;SHT31;53960;51.826;5.850;2023-01-24T15:05:34;2.77;83.72
67054;SHT31;53960;51.826;5.850;2023-01-24T15:08:02;2.74;83.81
67054;SHT31;53960;51.826;5.850;2023-01-24T15:12:55;2.69;84.23
67054;SHT31;53960;51.826;5.850;2023-01-24T15:15:22;2.69;84.15
67054;SHT31;53960;51.826;5.850;2023-01-24T15:17:49;2.72;83.99
67054;SHT31;53960;51.826;5.850;2023-01-24T15:20:21;2.68;84.21
67054;SHT31;53960;51.826;5.850;2023-01-24T15:22:54;2.71;84.38
67054;SHT31;53960;51.826;5.850;2023-01-24T15:25:20;2.60;84.45
67054;SHT31;53960;51.826;5.850;2023-01-24T15:27:46;2.62;84.55
67054;SHT31;53960;51.826;5.850;2023-01-24T15:30:22;2.64;84.73
67054;SHT31;53960;51.826;5.850;2023-01-24T15:32:50;2.64;84.47
67054;SHT31;53960;51.826;5.850;2023-01-24T15:40:53;2.65;84.58
67054;SHT31;53960;51.826;5.850;2023-01-24T15:43:31;2.64;84.54
67054;SHT31;53960;51.826;5.850;2023-01-24T15:46:25;2.60;84.67
67054;SHT31;53960;51.826;5.850;2023-01-24T15:52:19;2.60;84.83
67054;SHT31;53960;51.826;5.850;2023-01-24T15:54:50;2.57;85.10
67054;SHT31;53960;51.826;5.850;2023-01-24T15:57:24;2.58;85.01
67054;SHT31;53960;51.826;5.850;2023-01-24T15:59:55;2.62;84.71
67054;SHT31;53960;51.826;5.850;2023-01-24T16:02:22;2.58;84.74
67054;SHT31;53960;51.826;5.850;2023-01-24T16:04:48;2.55;84.63
67054;SHT31;53960;51.826;5.850;2023-01-24T16:07:14;2.54;84.64
67054;SHT31;53960;51.826;5.850;2023-01-24T16:09:40;2.52;84.83
67054;SHT31;53960;51.826;5.850;2023-01-24T16:12:09;2.51;84.97
67054;SHT31;53960;51.826;5.850;2023-01-24T16:14:36;2.41;85.43
67054;SHT31;53960;51.826;5.850;2023-01-24T16:17:04;2.41;85.59
67054;SHT31;53960;51.826;5.850;2023-01-24T16:19:29;2.40;85.81
67054;SHT31;53960;51.826;5.850;2023-01-24T16:21:55;2.44;85.64
67054;SHT31;53960;51.826;5.850;2023-01-24T16:24:20;2.41;85.57
67054;SHT31;53960;51.826;5.850;2023-01-24T16:26:51;2.38;85.39
67054;SHT31;53960;51.826;5.850;2023-01-24T16:29:20;2.44;85.07
67054;SHT31;53960;51.826;5.850;2023-01-24T16:31:46;2.45;84.59
67054;SHT31;53960;51.826;5.850;2023-01-24T16:34:12;2.41;84.95
67054;SHT31;53960;51.826;5.850;2023-01-24T16:36:38;2.36;85.19
67054;SHT31;53960;51.826;5.850;2023-01-24T16:39:05;2.38;84.80
67054;SHT31;53960;51.826;5.850;2023-01-24T16:41:31;2.37;84.75
67054;SHT31;53960;51.826;5.850;2023-01-24T16:43:56;2.36;85.04
67054;SHT31;53960;51.826;5.850;2023-01-24T16:46:22;2.38;84.84
67054;SHT31;53960;51.826;5.850;2023-01-24T16:48:48;2.40;85.11
67054;SHT31;53960;51.826;5.850;2023-01-24T16:51:14;2.30;85.49
67054;SHT31;53960;51.826;5.850;2023-01-24T16:53:40;2.36;85.40
67054;SHT31;53960;51.826;5.850;2023-01-24T16:56:06;2.31;85.87
67054;SHT31;53960;51.826;5.850;2023-01-24T16:58:32;2.29;85.79
67054;SHT31;53960;51.826;5.850;2023-01-24T17:00:57;2.30;86.15
67054;SHT31;53960;51.826;5.850;2023-01-24T17:03:23;2.23;86.35
67054;SHT31;53960;51.826;5.850;2023-01-24T17:05:48;2.23;86.49
67054;SHT31;53960;51.826;5.850;2023-01-24T17:08:14;2.26;86.21
67054;SHT31;53960;51.826;5.850;2023-01-24T17:10:40;2.23;86.28
67054;SHT31;53960;51.826;5.850;2023-01-24T17:13:07;2.23;86.69
67054;SHT31;53960;51.826;5.850;2023-01-24T17:15:38;2.21;86.58
67054;SHT31;53960;51.826;5.850;2023-01-24T17:18:05;2.23;86.43
67054;SHT31;53960;51.826;5.850;2023-01-24T17:20:32;2.24;86.04
67054;SHT31;53960;51.826;5.850;2023-01-24T17:22:58;2.27;85.80
67054;SHT31;53960;51.826;5.850;2023-01-24T17:25:27;2.29;86.08
67054;SHT31;53960;51.826;5.850;2023-01-24T17:27:53;2.27;86.17
67054;SHT31;53960;51.826;5.850;2023-01-24T17:30:19;2.29;85.93
67054;SHT31;53960;51.826;5.850;2023-01-24T17:32:44;2.33;85.57
67054;SHT31;53960;51.826;5.850;2023-01-24T17:35:09;2.34;85.76
67054;SHT31;53960;51.826;5.850;2023-01-24T17:37:35;2.37;85.37
67054;SHT31;53960;51.826;5.850;2023-01-24T17:40:00;2.30;85.40
67054;SHT31;53960;51.826;5.850;2023-01-24T17:42:26;2.27;85.79
67054;SHT31;53960;51.826;5.850;2023-01-24T17:44:51;2.17;86.06
67054;SHT31;53960;51.826;5.850;2023-01-24T17:47:16;2.19;86.21
67054;SHT31;53960;51.826;5.850;2023-01-24T17:49:42;2.14;85.58
67054;SHT31;53960;51.826;5.850;2023-01-24T17:52:07;2.16;85.97
67054;SHT31;53960;51.826;5.850;2023-01-24T17:54:32;2.19;85.83
67054;SHT31;53960;51.826;5.850;2023-01-24T17:56:58;2.16;86.03
67054;SHT31;53960;51.826;5.850;2023-01-24T17:59:23;2.20;85.91
67054;SHT31;53960;51.826;5.850;2023-01-24T18:01:48;2.23;85.33
67054;SHT31;53960;51.826;5.850;2023-01-24T18:04:14;2.27;85.11
67054;SHT31;53960;51.826;5.850;2023-01-24T18:06:39;2.26;85.12
67054;SHT31;53960;51.826;5.850;2023-01-24T18:09:04;2.26;84.97